Tiempo atmosférico en la estación meteorológica de Capdepera, Illes Balears (57 m.)



Fecha
DESCASC
Temp. máxima en grados centígrados (hora)
DESCASC
Temp. mínima en grados centígrados (hora)
DESCASC
Temp. media en grados centígrados
DESCASC
Racha de viento máxima en m/sg (hora)
DESCASC
Velocidad máxima media en intervalos de 10 minutos(hora)
DESCASC
Precipitaciones diarias en mm
DESCASC
Precipitaciones de 00:00 a 06:00 en mm
DESCASC
Precipitaciones de 06:00 a 12:00 en mm
DESCASC
Precipitaciones de 12:00 a 18:00 en mm
DESCASC
Precipitaciones de 18:00 a 24:00 en mm
DESCASC
18-02-2018 14.6 (15:30) 9.5 (23:59) 12.1 15.83 (06:10) 13.61 (07:00) 0 0 0 0 0
17-02-2018 17.6 (13:30) 11.6 (22:10) 14.6 19.17 (21:00) 15.83 (21:50) 0 0 0 0 0
16-02-2018 15.4 (11:10) 11.6 (22:40) 13.5 8.33 (16:10) 6.67 (16:20) 0 0 0 0 0
15-02-2018 18.9 (13:40) 11.3 (00:00) 15.1 8.06 (01:20) 6.11 (01:20) 0 0 0 0 0
14-02-2018 12.9 (14:40) 9.7 (00:00) 11.3 13.06 (09:30) 10.28 (10:10) 0 0 0 0 0
13-02-2018 13.2 (12:50) 3.8 (00:00) 8.5 20 (00:40) 15.28 (00:50) 1.3 1.3 0 0 0
12-02-2018 14.3 (04:30) 5.5 (00:00) 9.9 19.44 (15:50) 15.56 (16:30) 6.5 0 3.2 1.7 1.6
11-02-2018 15.9 (15:50) 5.6 (00:00) 10.7 20 (01:30) 16.39 (01:10) 0 0 0 0 0
10-02-2018 9 (21:30) 2.5 (00:00) 5.8 28.61 (09:40) 22.22 (08:00) 7.4 0.3 5.9 0.5 0.7
09-02-2018 9.1 (15:30) 4 (00:00) 6.6 16.11 (13:30) 13.61 (14:10) 3.3 0.3 2.6 0.4 0
08-02-2018 13 (09:50) 3.9 (00:00) 8.5 13.33 (19:30) 11.11 (19:00) 9 0 0 1.6 7.4
07-02-2018 9.3 (10:20) 6.9 (00:00) 8.1 22.22 (04:10) 18.89 (05:00) 1.2 0 0 0.9 0.3
06-02-2018 12.7 (00:10) 5.5 (00:00) 9.1 20 (19:50) 17.5 (20:10) 36.3 2.2 5.2 20.7 8.2
05-02-2018 15.3 (14:30) 11.6 (00:00) 13.5 17.78 (03:10) 15.28 (02:00) 0 0 0 0 0
04-02-2018 16.4 (11:20) 9 (00:00) 12.7 17.22 (23:30) 13.89 (23:20) 1.3 0 0 1.2 0.1
03-02-2018 13.6 (13:40) 5.7 (00:00) 9.7 15.56 (00:10) 12.22 (00:10) 0 0 0 0 0
02-02-2018 9.9 (21:20) 5.5 (00:00) 7.7 26.67 (12:00) 21.39 (11:40) 21.9 4.9 11.8 5.2 0
01-02-2018 -- (--) -- (--) -- -- (--) -- (--) -- 0 -- 0.8 4.3
31-01-2018 17.1 (12:30) 10 (00:00) 13.6 6.94 (17:40) 5.83 (18:00) 0 0 0 0 0
30-01-2018 16.4 (12:20) 9.4 (00:00) 12.9 5.83 (14:20) 4.72 (13:50) 0 0 0 0 0
29-01-2018 14.7 (12:30) 10.6 (00:00) 12.7 6.39 (03:20) 5 (03:10) 0 0 0 0 0
28-01-2018 14.4 (11:00) 11.4 (00:00) 12.9 17.78 (00:40) 15 (00:50) 0 0 0 0 0
27-01-2018 12.8 (23:50) 9.2 (00:00) 11 24.17 (07:00) 19.17 (06:40) 2.3 1.7 0 0.6 0
26-01-2018 13.9 (02:50) 9.2 (00:00) 11.5 21.94 (20:50) 18.33 (23:50) 9.1 0 5.9 0 3.2
25-01-2018 16.4 (11:40) 11.3 (00:00) 13.8 12.5 (16:30) 8.33 (16:40) 0 0 0 0 0
24-01-2018 18.2 (11:50) 11.7 (00:00) 15 8.33 (14:00) 6.11 (18:30) 0 0 0 0 0
23-01-2018 18.3 (11:10) 12.2 (00:00) 15.2 7.5 (09:40) 5.28 (10:30) 0 0 0 0 0
22-01-2018 22.3 (12:10) 13.7 (00:00) 18 10 (04:20) 5.83 (13:40) 0 0 0 0 0

Gráficas

Temp. máximas Temp. mínimas Temp. medias Precipitaciones Rachas de viento máximas Velocidades máximas media en intervalos de 10 minutos

Datos horarios

Fecha y hora oficial Temperatura (ºC) Velocidad del viento (km/h) Dirección del viento Racha (km/h) Dirección de racha Precipitación (mm) Presión (hPa) Tendencia (hPa) Humedad (%)
2018-02-20 23:00:00 12 8 Oeste 16 Oeste 0.1 -- -- 92
2018-02-20 22:00:00 12.3 5 Norte 13 Noroeste 0 -- -- 92
2018-02-20 21:00:00 11.9 8 Oeste 16 Noroeste 0 -- -- 94
2018-02-20 20:00:00 12.2 8 Oeste 28 Norte 0 -- -- 94
2018-02-20 19:00:00 12.4 22 Norte 40 Noroeste 0 -- -- 94
2018-02-20 18:00:00 12.6 33 Norte 41 Norte 0 -- -- 93
2018-02-20 17:00:00 12.8 25 Norte 31 Norte 0 -- -- 94
2018-02-20 16:00:00 12.8 18 Norte 31 Norte 0 -- -- 95
2018-02-20 15:00:00 13.2 12 Norte 14 Norte 0 -- -- 97
2018-02-20 14:00:00 13.1 12 Norte 17 Norte 0 -- -- 97
2018-02-20 13:00:00 12.4 14 Norte 30 Norte 0 -- -- 97
2018-02-20 12:00:00 12.2 16 Noroeste 24 Norte 0 -- -- 98
2018-02-20 11:00:00 11.2 0 Calma 11 Sur 0 -- -- 98
2018-02-20 10:00:00 10.3 8 Sur 11 Sur 0.9 -- -- 98
2018-02-20 09:00:00 10 7 Sur 11 Sur 0 -- -- 98
2018-02-20 08:00:00 9.8 6 Sur 15 Sudoeste 0.3 -- -- 97
2018-02-20 07:00:00 10.3 6 Norte 14 Noroeste 0.2 -- -- 95
2018-02-20 06:00:00 10.3 3 Noroeste 10 Sudoeste 0.1 -- -- 95
2018-02-20 05:00:00 10.2 8 Sudoeste 12 Sudoeste 0 -- -- 95
2018-02-20 04:00:00 10.3 10 Oeste 11 Oeste 0 -- -- 95
2018-02-20 03:00:00 10.4 5 Oeste 13 Sudoeste 0 -- -- 95
2018-02-20 02:00:00 10.1 8 Sudoeste 13 Noroeste 0 -- -- 95
2018-02-20 01:00:00 10.1 10 Noroeste 12 Noroeste 0 -- -- 95
2018-02-20 00:00:00 10.2 0 Calma 7 Sudoeste 0 -- -- 95
2018-02-19 23:00:00 10.5 0 Calma 7 Sudeste 0 -- -- 95
2018-02-19 22:00:00 10.9 4 Sudeste 7 Sudeste 0 -- -- 95
2018-02-19 21:00:00 10.9 5 Sudeste 6 Sudoeste 0 -- -- 95
2018-02-19 20:00:00 10.9 4 Sudoeste 15 Sur 0 -- -- 94
2018-02-19 19:00:00 11.5 10 Sur 16 Sudoeste 0 -- -- 94
2018-02-19 18:00:00 11.8 8 Sur 12 Sur 0 -- -- 94
2018-02-19 17:00:00 11.8 9 Sur 18 Sur 0 -- -- 94
2018-02-19 16:00:00 12.2 0 Calma 12 Norte 0 -- -- 93
2018-02-19 15:00:00 12.5 5 Norte 14 Norte 0.1 -- -- 94
2018-02-19 14:00:00 12.8 5 Nordeste 9 Este 0 -- -- 92
2018-02-19 13:00:00 13.1 4 Este 11 Nordeste 0 -- -- 91
2018-02-19 12:00:00 13 7 Nordeste 11 Nordeste 0 -- -- 91
2018-02-19 11:00:00 14.6 4 Este 9 Sudeste 0 -- -- 88
2018-02-19 10:00:00 13.2 0 Calma 5 Noroeste 0 -- -- 91
2018-02-19 09:00:00 10.8 4 Noroeste 5 Noroeste 0 -- -- 92
2018-02-19 08:00:00 10.5 2 Norte 7 Noroeste 0 -- -- 92
2018-02-19 07:00:00 10.1 6 Noroeste 8 Noroeste 0 -- -- 92
2018-02-19 06:00:00 10.2 8 Noroeste 12 Noroeste 0 -- -- 92
2018-02-19 05:00:00 10.1 9 Noroeste 13 Noroeste 0 -- -- 91
2018-02-19 04:00:00 10 9 Noroeste 12 Oeste 0 -- -- 90
2018-02-19 03:00:00 9.6 10 Noroeste 16 Noroeste 0 -- -- 92
2018-02-19 02:00:00 9.7 10 Noroeste 17 Noroeste 0 -- -- 92
2018-02-19 01:00:00 9.4 11 Noroeste 14 Noroeste 0 -- -- 92
2018-02-19 00:00:00 9.6 11 Noroeste 15 Noroeste 0 -- -- 91
2018-02-18 23:00:00 10.5 11 Noroeste 23 Norte 0 -- -- 92
2018-02-18 22:00:00 10.2 12 Noroeste 19 Noroeste 0 -- -- 91
2018-02-18 21:00:00 10.3 10 Noroeste 14 Oeste 0 -- -- 96
2018-02-18 20:00:00 11.1 9 Sudoeste 13 Sudoeste 0 -- -- 96
2018-02-18 19:00:00 11.7 11 Sur 21 Sudoeste 0 -- -- 94
2018-02-18 18:00:00 12.5 8 Sur 12 Sur 0 -- -- 88
2018-02-18 17:00:00 12.1 2 Norte 17 Norte 0 -- -- 85
2018-02-18 16:00:00 13 13 Norte 24 Norte 0 -- -- 84
2018-02-18 15:00:00 13.2 20 Norte 26 Norte 0 -- -- 88
2018-02-18 14:00:00 12.8 17 Norte 27 Norte 0 -- -- 93
2018-02-18 13:00:00 13.1 12 Noroeste 30 Norte 0 -- -- 94
2018-02-18 12:00:00 13.3 22 Norte 35 Norte 0 -- -- 92
2018-02-18 11:00:00 12.4 32 Norte 38 Norte 0 -- -- 94
2018-02-18 10:00:00 11.1 30 Norte 51 Norte 0 -- -- 95
2018-02-18 09:00:00 10.9 41 Norte 49 Norte 0 -- -- 95
2018-02-18 08:00:00 10.9 38 Norte 55 Norte 0 -- -- 94
2018-02-18 07:00:00 10.5 49 Norte 57 Norte 0 -- -- 94
2018-02-18 06:00:00 11 45 Norte 55 Norte 0 -- -- 93
2018-02-18 05:00:00 11.4 37 Norte 46 Norte 0 -- -- 92
2018-02-18 04:00:00 11.5 41 Norte 53 Norte 0 -- -- 90
2018-02-18 03:00:00 11.8 46 Norte 54 Norte 0 -- -- 88
2018-02-18 02:00:00 12 37 Norte 54 Norte 0 -- -- 90
2018-02-18 01:00:00 12.2 41 Norte 48 Norte 0 -- -- 86
2018-02-18 00:00:00 12.2 36 Norte 53 Norte 0 -- -- 89
2018-02-17 23:00:00 12.3 45 Norte 62 Norte 0 -- -- 90
2018-02-17 22:00:00 12.3 54 Norte 69 Norte 0 -- -- 87
2018-02-17 21:00:00 12.3 55 Norte 69 Norte 0 -- -- 90
2018-02-17 20:00:00 12.2 53 Norte 67 Norte 0 -- -- 92
2018-02-17 19:00:00 12.8 50 Norte 58 Norte 0 -- -- 95
2018-02-17 18:00:00 13.3 46 Norte 53 Norte 0 -- -- 97
2018-02-17 17:00:00 13.6 35 Norte 44 Norte 0 -- -- 97
2018-02-17 16:00:00 14.4 26 Norte 31 Norte 0 -- -- 95
2018-02-17 15:00:00 14.7 29 Norte 33 Norte 0 -- -- 95
2018-02-17 14:00:00 16.3 20 Norte 23 Norte 0 -- -- 94
2018-02-17 13:00:00 15.9 6 Norte 16 Norte 0 -- -- 97
2018-02-17 12:00:00 15.7 0 Calma 8 Sudeste 0 -- -- 97
2018-02-17 11:00:00 15.5 4 Sudeste 8 Sur 0 -- -- 98
2018-02-17 10:00:00 14.2 0 Calma 5 Norte 0 -- -- 98
2018-02-17 09:00:00 12.4 4 Norte 8 Norte 0 -- -- 98
2018-02-17 08:00:00 12.2 0 Calma 3 Nordeste 0 -- -- 98
2018-02-17 07:00:00 12.4 0 Calma 5 Nordeste 0 -- -- 98
2018-02-17 06:00:00 12.6 0 Calma 0 Calma 0 -- -- 97
2018-02-17 05:00:00 12.1 0 Calma 8 Sur 0 -- -- 96
2018-02-17 04:00:00 12.1 5 Sur 8 Sur 0 -- -- 96
2018-02-17 03:00:00 12.1 6 Sur 10 Sur 0 -- -- 95
2018-02-17 02:00:00 12.1 9 Sur 12 Sur 0 -- -- 95
2018-02-17 01:00:00 12.3 11 Sur 15 Sur 0 -- -- 95
2018-02-17 00:00:00 12.2 12 Sur 14 Sur 0 -- -- 94
2018-02-16 23:00:00 11.6 13 Sur 17 Sur 0 -- -- 98
2018-02-16 22:00:00 12.2 14 Sur 17 Sur 0 -- -- 98
2018-02-16 21:00:00 12 9 Sur 14 Sudoeste 0 -- -- 98
2018-02-16 20:00:00 12 12 Sudoeste 20 Sur 0 -- -- 98
2018-02-16 19:00:00 12.9 16 Sur 22 Sur 0 -- -- 98
2018-02-16 18:00:00 13.2 17 Sur 29 Sur 0 -- -- 98
2018-02-16 17:00:00 13.4 19 Sur 30 Sur 0 -- -- 97
2018-02-16 16:00:00 13.4 19 Sur 28 Sur 0 -- -- 97
2018-02-16 15:00:00 13.9 19 Sur 27 Sudeste 0 -- -- 97
2018-02-16 14:00:00 13.9 20 Sur 29 Sur 0 -- -- 97
2018-02-16 13:00:00 14.1 16 Sur 22 Sur 0 -- -- 96
2018-02-16 12:00:00 13.6 11 Sur 17 Sur 0 -- -- 94
2018-02-16 11:00:00 14.8 14 Sur 18 Sur 0 -- -- 78
2018-02-16 10:00:00 14.3 14 Sur 17 Sur 0 -- -- 80
2018-02-16 09:00:00 12.5 10 Sur 13 Sur 0 -- -- 85
2018-02-16 08:00:00 12.3 9 Sudoeste 13 Sudoeste 0 -- -- 82
2018-02-16 07:00:00 12.1 6 Sur 12 Sur 0 -- -- 85
2018-02-16 06:00:00 12 10 Sur 13 Sudoeste 0 -- -- 82
2018-02-16 05:00:00 13 12 Oeste 14 Oeste 0 -- -- 75
2018-02-16 04:00:00 12.3 9 Sur 18 Sur 0 -- -- 80
2018-02-16 03:00:00 12.6 14 Sur 18 Sur 0 -- -- 80
2018-02-16 02:00:00 12.8 6 Sur 9 Sur 0 -- -- 82
2018-02-16 01:00:00 13 5 Sur 14 Oeste 0 -- -- 88
2018-02-16 00:00:00 12.6 9 Sudoeste 19 Sudoeste 0 -- -- 90
2018-02-15 23:00:00 13 13 Sudoeste 22 Sur 0 -- -- 92
2018-02-15 22:00:00 13.1 8 Sur 18 Sudoeste 0 -- -- 92
2018-02-15 21:00:00 13.1 5 Sudoeste 16 Oeste 0 -- -- 94
2018-02-15 20:00:00 13.3 13 Oeste 18 Oeste 0 -- -- 94
2018-02-15 19:00:00 14.1 6 Oeste 12 Noroeste 0 -- -- 93
2018-02-15 18:00:00 15.2 0 Calma 15 Sur 0 -- -- 91
2018-02-15 17:00:00 15.9 6 Sudoeste 13 Sur 0 -- -- 84
2018-02-15 16:00:00 16.1 8 Sur 11 Sur 0 -- -- 91
2018-02-15 15:00:00 17.4 7 Sur 10 Sudeste 0 -- -- 88
2018-02-15 14:00:00 17.7 4 Sudeste 16 Sur 0 -- -- 79
2018-02-15 13:00:00 16.2 11 Sur 18 Sur 0 -- -- 88
2018-02-15 12:00:00 17.3 10 Sur 19 Sur 0 -- -- 82
2018-02-15 11:00:00 18.7 6 Sur 17 Sur 0 -- -- 67
2018-02-15 10:00:00 16.7 9 Sur 14 Sur 0 -- -- 80
2018-02-15 09:00:00 16.4 6 Sudoeste 13 Sur 0 -- -- 72
2018-02-15 08:00:00 13.7 6 Sudoeste 16 Sudoeste 0 -- -- 80
2018-02-15 07:00:00 12.7 15 Sudoeste 21 Sudoeste 0 -- -- 88
2018-02-15 06:00:00 12.4 10 Oeste 21 Noroeste 0 -- -- 90
2018-02-15 05:00:00 12.9 12 Oeste 15 Oeste 0 -- -- 89
2018-02-15 04:00:00 12.7 13 Oeste 22 Oeste 0 -- -- 91
2018-02-15 03:00:00 12.3 15 Oeste 25 Sudoeste 0 -- -- 93
2018-02-15 02:00:00 11.8 22 Sudoeste 29 Sudoeste 0 -- -- 94
2018-02-15 01:00:00 11.6 19 Sudoeste 25 Sudoeste 0 -- -- 93
2018-02-15 00:00:00 11.3 17 Sudoeste 21 Sudoeste 0 -- -- 95
2018-02-14 23:00:00 11.2 9 Sudoeste 18 Sur 0 -- -- 95
2018-02-14 22:00:00 11.2 17 Sur 19 Sur 0 -- -- 95
2018-02-14 21:00:00 10.8 17 Sur 20 Sudoeste 0 -- -- 95
2018-02-14 20:00:00 10.9 17 Sur 23 Sur 0 -- -- 92
2018-02-14 19:00:00 11.2 21 Sur 26 Sur 0 -- -- 89
2018-02-14 18:00:00 11.6 9 Sur 14 Sudoeste 0 -- -- 82
2018-02-14 17:00:00 11.7 0 Calma 10 Norte 0 -- -- 79
2018-02-14 16:00:00 12.3 8 Norte 19 Norte 0 -- -- 79
2018-02-14 15:00:00 12 10 Norte 16 Norte 0 -- -- 80
2018-02-14 14:00:00 11.8 12 Norte 19 Norte 0 -- -- 82
2018-02-14 13:00:00 11.9 16 Norte 24 Norte 0 -- -- 83
2018-02-14 12:00:00 11.2 19 Norte 31 Norte 0 -- -- 90
2018-02-14 11:00:00 11 24 Norte 41 Norte 0 -- -- 91
2018-02-14 10:00:00 11.4 34 Norte 47 Noroeste 0 -- -- 89
2018-02-14 09:00:00 11.8 16 Noroeste 33 Noroeste 0 -- -- 80
2018-02-14 08:00:00 11.2 11 Noroeste 23 Noroeste 0 -- -- 82
2018-02-14 07:00:00 11.3 9 Noroeste 32 Norte 0 -- -- 80
2018-02-14 06:00:00 11.4 19 Noroeste 30 Norte 0 -- -- 83
2018-02-14 05:00:00 10.4 9 Noroeste 15 Oeste 0 -- -- 86
2018-02-14 04:00:00 10.6 9 Noroeste 20 Oeste 0 -- -- 86
2018-02-14 03:00:00 10.3 3 Sudoeste 9 Sudoeste 0 -- -- 86
2018-02-14 02:00:00 10.7 8 Oeste 11 Oeste 0 -- -- 85
2018-02-14 01:00:00 10.2 9 Sudoeste 16 Sudoeste 0 -- -- 90
2018-02-14 00:00:00 9.9 14 Sur 20 Sur 0 -- -- 90
2018-02-13 23:00:00 10.8 7 Sudoeste 23 Oeste 0 -- -- 77
2018-02-13 22:00:00 10.3 14 Sur 28 Sudoeste 0 -- -- 84
2018-02-13 21:00:00 10.6 20 Sudoeste 33 Sudoeste 0 -- -- 76
2018-02-13 20:00:00 10.6 26 Sudoeste 33 Sudoeste 0 -- -- 72
2018-02-13 19:00:00 10.2 18 Sudoeste 30 Sudoeste 0 -- -- 74
2018-02-13 18:00:00 10.1 23 Sudoeste 37 Sudoeste 0 -- -- 69
2018-02-13 17:00:00 10.5 29 Sudoeste 39 Sudoeste 0 -- -- 63
2018-02-13 16:00:00 11 27 Sudoeste 43 Sudoeste 0 -- -- 61
2018-02-13 15:00:00 12.3 30 Sudoeste 47 Sudoeste 0 -- -- 52
2018-02-13 14:00:00 12.7 24 Sudoeste 37 Sudoeste 0 -- -- 52
2018-02-13 13:00:00 12.4 22 Sudoeste 38 Sudoeste 0 -- -- 55
2018-02-13 12:00:00 11.4 25 Sudoeste 36 Sudoeste 0 -- -- 64
2018-02-13 11:00:00 10.4 22 Sudoeste 36 Sudoeste 0 -- -- 74
2018-02-13 10:00:00 9.2 16 Sudoeste 25 Sudoeste 0 -- -- 74
2018-02-13 09:00:00 6.8 21 Sudoeste 31 Sudoeste 0 -- -- 80
2018-02-13 08:00:00 4 16 Oeste 21 Oeste 0 -- -- 88
2018-02-13 07:00:00 4.8 15 Oeste 30 Norte 0 -- -- 82
2018-02-13 06:00:00 7 22 Norte 41 Noroeste 0 -- -- 70
2018-02-13 05:00:00 7.3 31 Norte 46 Noroeste 0 -- -- 74
2018-02-13 04:00:00 7.1 32 Norte 44 Norte 0 -- -- 78
2018-02-13 03:00:00 6.7 32 Noroeste 59 Norte 0 -- -- 80
2018-02-13 02:00:00 6.9 50 Norte 66 Norte 0.1 -- -- 83
2018-02-13 01:00:00 6 55 Norte 72 Norte 1.2 -- -- 92
2018-02-13 00:00:00 6.8 49 Norte 63 Norte 0.3 -- -- 85
2018-02-12 23:00:00 8.2 40 Norte 55 Norte 0 -- -- 75
2018-02-12 22:00:00 7.6 21 Norte 32 Nordeste 0 -- -- 86
2018-02-12 21:00:00 6.9 21 Nordeste 46 Nordeste 0 -- -- 89
2018-02-12 20:00:00 6.4 32 Norte 45 Nordeste 0.2 -- -- 95
2018-02-12 19:00:00 6.2 37 Norte 53 Norte 1.1 -- -- 97
2018-02-12 18:00:00 6.3 41 Norte 62 Norte 0.9 -- -- 97
2018-02-12 17:00:00 6.2 51 Norte 69 Norte 0.6 -- -- 96
2018-02-12 16:00:00 7 53 Norte 70 Norte 0.1 -- -- 95
2018-02-12 15:00:00 7.1 51 Norte 67 Norte 0 -- -- 98
2018-02-12 14:00:00 8.2 44 Norte 56 Norte 0 -- -- 96
2018-02-12 13:00:00 8.1 44 Nordeste 53 Nordeste 0.1 -- -- 98
2018-02-12 12:00:00 8.2 44 Nordeste 58 Norte 0.4 -- -- 99
2018-02-12 11:00:00 8 47 Norte 55 Norte 1.1 -- -- 99
2018-02-12 10:00:00 8.8 41 Norte 48 Norte 1.7 -- -- 99
2018-02-12 09:00:00 10.7 26 Nordeste 36 Nordeste 0 -- -- 95
2018-02-12 08:00:00 11.2 30 Nordeste 36 Nordeste 0 -- -- 93
2018-02-12 07:00:00 11.2 31 Nordeste 47 Norte 0 -- -- 93
2018-02-12 06:00:00 11.6 41 Norte 47 Norte 0 -- -- 93
2018-02-12 05:00:00 14.1 34 Noroeste 42 Noroeste 0 -- -- 77
2018-02-12 04:00:00 13.6 14 Noroeste 24 Noroeste 0 -- -- 77
2018-02-12 03:00:00 13.1 12 Oeste 24 Oeste 0 -- -- 77
2018-02-12 02:00:00 12.6 13 Oeste 41 Sudoeste 0 -- -- 82
2018-02-12 01:00:00 12.7 29 Sudoeste 42 Sudoeste 0 -- -- 75
2018-02-12 00:00:00 12.1 27 Sudoeste 45 Sudoeste 0 -- -- 81
2018-02-11 23:00:00 11.9 25 Sudoeste 37 Sudoeste 0 -- -- 80
2018-02-11 22:00:00 11 15 Sudoeste 34 Sudoeste 0 -- -- 84
2018-02-11 21:00:00 10.9 14 Sudoeste 31 Oeste 0 -- -- 80
2018-02-11 20:00:00 10.8 4 Noroeste 15 Oeste 0 -- -- 77
2018-02-11 19:00:00 11.2 0 Calma 21 Sur 0 -- -- 77
2018-02-11 18:00:00 12.1 15 Sudoeste 26 Sudoeste 0 -- -- 74
2018-02-11 17:00:00 13.5 19 Sudoeste 32 Sudoeste 0 -- -- 68
2018-02-11 16:00:00 14.6 18 Sudoeste 27 Sudoeste 0 -- -- 65
2018-02-11 15:00:00 15.3 17 Sudoeste 30 Sudoeste 0 -- -- 61
2018-02-11 14:00:00 14.1 0 Calma 24 Oeste 0 -- -- 63
2018-02-11 13:00:00 13.8 17 Sudoeste 30 Sudoeste 0 -- -- 62
2018-02-11 12:00:00 12.7 14 Sudoeste 28 Sudoeste 0 -- -- 65
2018-02-11 11:00:00 12.6 10 Sudoeste 21 Oeste 0 -- -- 69
2018-02-11 10:00:00 9.5 16 Sudoeste 24 Sudoeste 0 -- -- 74
2018-02-11 09:00:00 9.3 18 Sudoeste 26 Sudoeste 0 -- -- 67
2018-02-11 08:00:00 5.9 19 Sudoeste 23 Sudoeste 0 -- -- 73
2018-02-11 07:00:00 6.1 21 Sudoeste 28 Sudoeste 0 -- -- 71
2018-02-11 06:00:00 6.3 24 Sudoeste 26 Sudoeste 0 -- -- 71
2018-02-11 05:00:00 7 21 Sudoeste 26 Sudoeste 0 -- -- 68
2018-02-11 04:00:00 8.9 20 Norte 53 Norte 0 -- -- 65
2018-02-11 03:00:00 8.9 45 Norte 64 Norte 0 -- -- 67
2018-02-11 02:00:00 8.8 53 Norte 72 Norte 0 -- -- 68
2018-02-11 01:00:00 8.8 58 Norte 72 Norte 0 -- -- 71
2018-02-11 00:00:00 8.7 57 Norte 68 Norte 0 -- -- 73
2018-02-10 23:00:00 8.7 55 Norte 69 Norte 0 -- -- 79
2018-02-10 22:00:00 8.8 58 Norte 76 Norte 0 -- -- 83
2018-02-10 21:00:00 8.6 64 Norte 80 Norte 0 -- -- 86
2018-02-10 20:00:00 7.6 65 Norte 84 Norte 0.2 -- -- 89
2018-02-10 19:00:00 6.4 67 Norte 85 Norte 0.5 -- -- 94
2018-02-10 18:00:00 4.9 70 Norte 89 Noroeste 0.5 -- -- 95
2018-02-10 17:00:00 5.6 74 Norte 95 Norte 0 -- -- 91
2018-02-10 16:00:00 5.9 67 Norte 83 Norte 0 -- -- 89
2018-02-10 15:00:00 6 59 Norte 86 Norte 0 -- -- 86
2018-02-10 14:00:00 7.2 64 Norte 80 Norte 0 -- -- 83
2018-02-10 13:00:00 7.5 67 Norte 87 Norte 0 -- -- 71
2018-02-10 12:00:00 8.3 71 Norte 94 Norte 0.1 -- -- 63
2018-02-10 11:00:00 7.5 76 Norte 98 Norte 0 -- -- 67
2018-02-10 10:00:00 6.8 70 Norte 103 Norte 0.1 -- -- 65
2018-02-10 09:00:00 3.6 68 Norte 99 Norte 0.3 -- -- 98
2018-02-10 08:00:00 3.2 80 Norte 95 Norte 0.9 -- -- 99
2018-02-10 07:00:00 3.1 58 Norte 78 Norte 4.5 -- -- 99
2018-02-10 06:00:00 3.4 56 Norte 74 Norte 0.3 -- -- 99
2018-02-10 05:00:00 6.7 35 Nordeste 41 Nordeste 0 -- -- 94
2018-02-10 04:00:00 7.1 8 Norte 16 Nordeste 0 -- -- 87
2018-02-10 03:00:00 6 14 Sudoeste 18 Oeste 0 -- -- 88
2018-02-10 02:00:00 6.1 16 Oeste 21 Sudoeste 0 -- -- 90
2018-02-10 01:00:00 5.7 17 Sudoeste 19 Sudoeste 0 -- -- 90
2018-02-10 00:00:00 6.1 17 Sudoeste 19 Sudoeste 0 -- -- 90
2018-02-09 23:00:00 6.5 12 Sudoeste 15 Sudoeste 0 -- -- 90
2018-02-09 22:00:00 6.6 12 Oeste 17 Noroeste 0 -- -- 90
2018-02-09 21:00:00 7 12 Noroeste 28 Norte 0 -- -- 89
2018-02-09 20:00:00 8 20 Noroeste 32 Norte 0 -- -- 89
2018-02-09 19:00:00 8.2 26 Norte 36 Norte 0 -- -- 90
2018-02-09 18:00:00 8.3 25 Norte 42 Norte 0 -- -- 92
2018-02-09 17:00:00 8.4 33 Norte 45 Norte 0 -- -- 93
2018-02-09 16:00:00 8.3 40 Norte 50 Norte 0 -- -- 93
2018-02-09 15:00:00 8.3 44 Norte 57 Norte 0 -- -- 95
2018-02-09 14:00:00 7.5 39 Norte 58 Norte 0.1 -- -- 98
2018-02-09 13:00:00 7 32 Nordeste 48 Norte 0.3 -- -- 99
2018-02-09 12:00:00 6.5 38 Nordeste 47 Norte 0.5 -- -- 99
2018-02-09 11:00:00 6.6 32 Norte 50 Norte 0.1 -- -- 98
2018-02-09 10:00:00 6.9 33 Norte 45 Norte 0 -- -- 96
2018-02-09 09:00:00 6.5 33 Norte 40 Norte 1.9 -- -- 98
2018-02-09 08:00:00 5.3 13 Noroeste 19 Noroeste 0.1 -- -- 99
2018-02-09 07:00:00 5.2 14 Noroeste 22 Noroeste 0 -- -- 99
2018-02-09 06:00:00 4.6 15 Oeste 24 Noroeste 0.3 -- -- 99
2018-02-09 05:00:00 5 14 Norte 24 Norte 0 -- -- 99
2018-02-09 04:00:00 4.9 13 Noroeste 33 Noroeste 0 -- -- 99
2018-02-09 03:00:00 4.8 19 Norte 34 Norte 0 -- -- 99
2018-02-09 02:00:00 5 18 Noroeste 35 Norte 0 -- -- 99
2018-02-09 01:00:00 4.6 9 Norte 23 Oeste 0 -- -- 99
2018-02-09 00:00:00 4 21 Oeste 31 Oeste 1.8 -- -- 99
2018-02-08 23:00:00 6.5 21 Nordeste 40 Nordeste 2.4 -- -- 98
2018-02-08 22:00:00 6.5 28 Nordeste 39 Nordeste 0.6 -- -- 98
2018-02-08 21:00:00 6.4 27 Nordeste 43 Nordeste 1.9 -- -- 98
2018-02-08 20:00:00 6.7 35 Nordeste 48 Nordeste 0.7 -- -- 98
2018-02-08 19:00:00 6.8 40 Nordeste 46 Nordeste 0 -- -- 98
2018-02-08 18:00:00 7.3 31 Norte 39 Norte 0 -- -- 95
2018-02-08 17:00:00 8 31 Norte 41 Norte 0 -- -- 92
2018-02-08 16:00:00 9.6 20 Norte 33 Norte 1.6 -- -- 94
2018-02-08 15:00:00 9.2 15 Norte 22 Norte 0 -- -- 91
2018-02-08 14:00:00 9.2 11 Norte 24 Norte 0 -- -- 91
2018-02-08 13:00:00 9.5 20 Norte 33 Norte 0 -- -- 89
2018-02-08 12:00:00 9.7 23 Norte 28 Noroeste 0 -- -- 82
2018-02-08 11:00:00 11.1 18 Noroeste 27 Noroeste 0 -- -- 75
2018-02-08 10:00:00 12.8 6 Norte 13 Nordeste 0 -- -- 66
2018-02-08 09:00:00 8.7 12 Oeste 15 Oeste 0 -- -- 77
2018-02-08 08:00:00 8 12 Oeste 14 Noroeste 0 -- -- 78
2018-02-08 07:00:00 7.6 12 Oeste 15 Oeste 0 -- -- 84
2018-02-08 06:00:00 7.8 10 Oeste 17 Norte 0 -- -- 82
2018-02-08 05:00:00 8.1 8 Noroeste 19 Noroeste 0 -- -- 81
2018-02-08 04:00:00 7.6 14 Oeste 16 Oeste 0 -- -- 84
2018-02-08 03:00:00 7.7 6 Noroeste 13 Oeste 0 -- -- 83
2018-02-08 02:00:00 7.5 6 Oeste 14 Oeste 0 -- -- 86
2018-02-08 01:00:00 7.2 11 Oeste 16 Noroeste 0 -- -- 91
2018-02-08 00:00:00 7.2 9 Oeste 14 Noroeste 0 -- -- 94
2018-02-07 23:00:00 7 12 Oeste 20 Oeste 0.1 -- -- 95
2018-02-07 22:00:00 7.3 13 Oeste 21 Oeste 0.1 -- -- 95
2018-02-07 21:00:00 7.5 9 Oeste 14 Oeste 0 -- -- 97
2018-02-07 20:00:00 7.5 9 Oeste 17 Oeste 0.1 -- -- 97
2018-02-07 19:00:00 8.3 8 Sur 18 Sur 0 -- -- 97
2018-02-07 18:00:00 8.1 9 Sudeste 15 Este 0 -- -- 97
2018-02-07 17:00:00 7.9 3 Este 16 Nordeste 0 -- -- 97
2018-02-07 16:00:00 7.6 12 Nordeste 22 Nordeste 0 -- -- 97
2018-02-07 15:00:00 8.3 8 Norte 14 Norte 0 -- -- 97
2018-02-07 14:00:00 8.2 5 Norte 15 Noroeste 0.3 -- -- 97
2018-02-07 13:00:00 7.8 11 Noroeste 39 Norte 0.6 -- -- 95
2018-02-07 12:00:00 8.9 30 Norte 53 Norte 0 -- -- 89
2018-02-07 11:00:00 9.1 45 Norte 63 Norte 0 -- -- 89
2018-02-07 10:00:00 8.7 52 Norte 65 Norte 0 -- -- 90
2018-02-07 09:00:00 8.4 54 Norte 70 Norte 0 -- -- 90
2018-02-07 08:00:00 8 56 Norte 78 Norte 0 -- -- 90
2018-02-07 07:00:00 7.9 60 Norte 75 Norte 0 -- -- 91
2018-02-07 06:00:00 7.8 62 Norte 78 Norte 0 -- -- 92
2018-02-07 05:00:00 8 68 Norte 80 Norte 0 -- -- 92
2018-02-07 04:00:00 8.5 64 Norte 77 Norte 0 -- -- 93
2018-02-07 03:00:00 8.5 60 Norte 75 Norte 0 -- -- 94
2018-02-07 02:00:00 8.2 57 Norte 73 Norte 0 -- -- 95
2018-02-07 01:00:00 8.4 60 Norte 72 Norte 0 -- -- 95
2018-02-07 00:00:00 8.5 55 Norte 66 Norte 0 -- -- 95
2018-02-06 23:00:00 8.4 55 Norte 66 Norte 0 -- -- 95
2018-02-06 22:00:00 8.6 58 Norte 68 Norte 0.1 -- -- 95
2018-02-06 21:00:00 8.7 54 Norte 71 Norte 0 -- -- 97
2018-02-06 20:00:00 8.5 59 Norte 72 Norte 3.5 -- -- 98
2018-02-06 19:00:00 5.8 10 Oeste 20 Noroeste 4.6 -- -- 99
2018-02-06 18:00:00 6.3 12 Noroeste 19 Noroeste 3.8 -- -- 98
2018-02-06 17:00:00 6.5 8 Noroeste 11 Noroeste 3 -- -- 98
2018-02-06 16:00:00 6.7 8 Noroeste 15 Noroeste 5.9 -- -- 98
2018-02-06 15:00:00 7.1 11 Noroeste 22 Sudoeste 3.5 -- -- 98
2018-02-06 14:00:00 7.1 21 Sudoeste 30 Sudoeste 3.5 -- -- 98
2018-02-06 13:00:00 8.1 18 Sudoeste 36 Sur 1 -- -- 97
2018-02-06 12:00:00 10.8 19 Este 30 Este 0 -- -- 92
2018-02-06 11:00:00 10.4 16 Norte 27 Nordeste 0 -- -- 91
2018-02-06 10:00:00 9.7 22 Nordeste 36 Norte 0 -- -- 93
2018-02-06 09:00:00 9.4 15 Nordeste 31 Nordeste 0 -- -- 92
2018-02-06 08:00:00 8.5 8 Este 36 Sudeste 1.4 -- -- 98
2018-02-06 07:00:00 7.1 14 Sur 43 Sur 3.8 -- -- 98
2018-02-06 06:00:00 9.8 4 Norte 10 Nordeste 0 -- -- 93
2018-02-06 05:00:00 9.2 8 Norte 10 Norte 0 -- -- 94
2018-02-06 04:00:00 8.9 2 Norte 9 Este 0 -- -- 94
2018-02-06 03:00:00 8.4 9 Sur 34 Sudoeste 0.9 -- -- 94
2018-02-06 02:00:00 8.2 33 Sudoeste 67 Sur 1.3 -- -- 95
2018-02-06 01:00:00 12.5 23 Sudeste 28 Sudeste 0 -- -- 74
2018-02-06 00:00:00 12.6 23 Sudeste 29 Sudeste 0 -- -- 69
2018-02-05 23:00:00 12.7 21 Sur 49 Sur 0 -- -- 64
2018-02-05 22:00:00 12.7 34 Sur 53 Sur 0 -- -- 65
2018-02-05 21:00:00 12.3 17 Sur 27 Sur 0 -- -- 80
2018-02-05 20:00:00 12 14 Sur 24 Sur 0 -- -- 83
2018-02-05 19:00:00 12.2 21 Sur 41 Sudeste 0 -- -- 80
2018-02-05 18:00:00 12.7 28 Sur 47 Sur 0 -- -- 73
2018-02-05 17:00:00 12.9 28 Sur 44 Sur 0 -- -- 72
2018-02-05 16:00:00 13.3 30 Sur 38 Sudeste 0 -- -- 68
2018-02-05 15:00:00 14.2 33 Sur 43 Sur 0 -- -- 69
2018-02-05 14:00:00 13.7 37 Sur 48 Sur 0 -- -- 77
2018-02-05 13:00:00 14.8 40 Sur 48 Sur 0 -- -- 72
2018-02-05 12:00:00 13.8 42 Sur 51 Sur 0 -- -- 71
2018-02-05 11:00:00 13.4 46 Sur 55 Sur 0 -- -- 75
2018-02-05 10:00:00 12.7 46 Sur 55 Sur 0 -- -- 73
2018-02-05 09:00:00 12.6 45 Sur 57 Sur 0 -- -- 71
2018-02-05 08:00:00 12.6 50 Sur 58 Sur 0 -- -- 68
2018-02-05 07:00:00 12.4 49 Sur 56 Sur 0 -- -- 75
2018-02-05 06:00:00 12.4 48 Sur 60 Sur 0 -- -- 76
2018-02-05 05:00:00 12.2 50 Sur 64 Sur 0 -- -- 79
2018-02-05 04:00:00 12.1 51 Sur 64 Sudeste 0 -- -- 80
2018-02-05 03:00:00 12.1 51 Sur 62 Sur 0 -- -- 77
2018-02-05 02:00:00 11.8 55 Sur 62 Sur 0 -- -- 79
2018-02-05 01:00:00 11.8 51 Sur 60 Sur 0 -- -- 79
2018-02-05 00:00:00 11.8 50 Sur 62 Sur 0 -- -- 77
2018-02-04 23:00:00 11.8 46 Sur 60 Sur 0 -- -- 75
2018-02-04 22:00:00 11.7 34 Sur 52 Sur 0 -- -- 82
2018-02-04 21:00:00 11 29 Sur 42 Sur 0 -- -- 90
2018-02-04 20:00:00 9.2 12 Sur 18 Sudoeste 0 -- -- 98
2018-02-04 19:00:00 9.3 8 Sur 14 Sur 0.1 -- -- 98
2018-02-04 18:00:00 9.1 14 Sur 35 Sur 0.5 -- -- 98
2018-02-04 17:00:00 9.8 26 Sur 57 Sur 0.6 -- -- 95
2018-02-04 16:00:00 13.1 23 Sur 40 Sur 0 -- -- 77
2018-02-04 15:00:00 12.8 25 Sur 52 Sur 0.1 -- -- 87
2018-02-04 14:00:00 13.8 26 Sur 46 Sur 0 -- -- 73
2018-02-04 13:00:00 14.5 23 Sur 37 Sudoeste 0 -- -- 72
2018-02-04 12:00:00 13.8 18 Sur 31 Sur 0 -- -- 74
2018-02-04 11:00:00 15.5 19 Sur 28 Sur 0 -- -- 67
2018-02-04 10:00:00 14.9 12 Sudoeste 19 Sudoeste 0 -- -- 76
2018-02-04 09:00:00 10.9 15 Sudoeste 19 Sudoeste 0 -- -- 92
2018-02-04 08:00:00 9.3 10 Sudoeste 20 Sudoeste 0 -- -- 92
2018-02-04 07:00:00 9.8 13 Sudoeste 21 Sudoeste 0 -- -- 90
2018-02-04 06:00:00 9.8 18 Sudoeste 24 Sudoeste 0 -- -- 87
2018-02-04 05:00:00 9.8 19 Sudoeste 27 Sudoeste 0 -- -- 84
2018-02-04 04:00:00 10.3 22 Sudoeste 33 Sudoeste 0 -- -- 80
2018-02-04 03:00:00 10.4 22 Sudoeste 38 Sudoeste 0 -- -- 80
2018-02-04 02:00:00 10.6 28 Sudoeste 37 Sudoeste 0 -- -- 76
2018-02-04 01:00:00 10.3 24 Sudoeste 33 Sudoeste 0 -- -- 75
2018-02-04 00:00:00 9.6 24 Sudoeste 28 Sudoeste 0 -- -- 74
2018-02-03 23:00:00 8.8 19 Sudoeste 27 Sudoeste 0 -- -- 73
2018-02-03 22:00:00 8.2 19 Sudoeste 27 Sudoeste 0 -- -- 75
2018-02-03 21:00:00 8.4 21 Sudoeste 26 Sudoeste 0 -- -- 74
2018-02-03 20:00:00 8.9 17 Sudoeste 21 Sudoeste 0 -- -- 72
2018-02-03 19:00:00 9 11 Sudoeste 15 Sudoeste 0 -- -- 66
2018-02-03 18:00:00 9.5 9 Oeste 27 Oeste 0 -- -- 64
2018-02-03 17:00:00 11.2 11 Oeste 24 Oeste 0 -- -- 58
2018-02-03 16:00:00 12 9 Oeste 29 Noroeste 0 -- -- 53
2018-02-03 15:00:00 11.9 13 Oeste 33 Norte 0 -- -- 56
2018-02-03 14:00:00 11.2 8 Noroeste 23 Oeste 0 -- -- 58
2018-02-03 13:00:00 11.7 5 Oeste 24 Oeste 0 -- -- 67
2018-02-03 12:00:00 10.3 8 Sudeste 21 Este 0 -- -- 76
2018-02-03 11:00:00 10.2 7 Este 21 Este 0 -- -- 77
2018-02-03 10:00:00 9 9 Nordeste 18 Nordeste 0 -- -- 81
2018-02-03 09:00:00 8.6 14 Sudoeste 21 Sudoeste 0 -- -- 74
2018-02-03 08:00:00 6.2 11 Sudoeste 18 Oeste 0 -- -- 77
2018-02-03 07:00:00 6 15 Sudoeste 25 Sudoeste 0 -- -- 80
2018-02-03 06:00:00 6.8 24 Sudoeste 29 Sudoeste 0 -- -- 72
2018-02-03 05:00:00 6.5 22 Sudoeste 26 Sudoeste 0 -- -- 74
2018-02-03 04:00:00 7.1 19 Sudoeste 24 Sudoeste 0 -- -- 77
2018-02-03 03:00:00 7.2 15 Sudoeste 38 Norte 0 -- -- 77
2018-02-03 02:00:00 9.3 25 Norte 42 Norte 0 -- -- 74
2018-02-03 01:00:00 9.2 32 Norte 56 Norte 0 -- -- 69
2018-02-03 00:00:00 9.3 43 Norte 63 Norte 0 -- -- 62
2018-02-02 23:00:00 9.3 45 Norte 62 Norte 0 -- -- 67
2018-02-02 22:00:00 9.8 53 Norte 86 Norte 0 -- -- 65
2018-02-02 21:00:00 9.6 63 Norte 86 Norte 0 -- -- 68
2018-02-02 20:00:00 9.4 62 Norte 82 Norte 0 -- -- 74
2018-02-02 19:00:00 8.8 67 Norte 87 Norte 0 -- -- 78
2018-02-02 18:00:00 8.4 73 Norte 94 Norte 0 -- -- 87
2018-02-02 17:00:00 8 72 Norte 88 Norte 0 -- -- 91
2018-02-02 16:00:00 7.6 68 Norte 91 Norte 0.4 -- -- 95
2018-02-02 15:00:00 6.3 63 Norte 81 Norte 2.4 -- -- 97
2018-02-02 14:00:00 6.4 65 Norte 90 Norte 0.9 -- -- 97
2018-02-02 13:00:00 6.6 72 Norte 95 Norte 1.5 -- -- 98
2018-02-02 12:00:00 6.7 76 Norte 96 Norte 1.4 -- -- 98
2018-02-02 11:00:00 6.7 71 Norte 89 Norte 1.6 -- -- 99
2018-02-02 10:00:00 6.5 71 Norte 87 Norte 2.4 -- -- 99
2018-02-02 09:00:00 6.8 69 Norte 82 Norte 2.7 -- -- 99
2018-02-02 08:00:00 6.6 62 Norte 73 Norte 2.2 -- -- 99
2018-02-02 07:00:00 7.5 40 Nordeste 49 Nordeste 1.5 -- -- 99
2018-02-02 06:00:00 7.6 41 Nordeste 50 Nordeste 1 -- -- 99
2018-02-02 05:00:00 7.7 43 Norte 53 Norte 0.5 -- -- 99
2018-02-02 04:00:00 7.4 42 Norte 54 Nordeste 0.5 -- -- 99
2018-02-02 03:00:00 7.1 45 Nordeste 54 Norte 0.1 -- -- 99
2018-02-02 02:00:00 7.1 43 Norte 53 Norte 1.2 -- -- 99
2018-02-02 01:00:00 7.5 44 Nordeste 50 Norte 1.6 -- -- 99
2018-02-02 00:00:00 8 41 Norte 48 Norte 3.8 -- -- 99
2018-02-01 23:00:00 9.4 36 Nordeste 47 Nordeste 0 -- -- 98
2018-02-01 22:00:00 9.7 40 Nordeste 58 Nordeste 0 -- -- 98
2018-02-01 21:00:00 10.1 51 Norte 72 Norte 0 -- -- 98
2018-02-01 20:00:00 10.2 61 Norte 70 Norte 0.1 -- -- 98
2018-02-01 19:00:00 10.7 23 Noroeste 54 Norte 0.4 -- -- 98
2018-02-01 18:00:00 11.6 15 Sudoeste 20 Sudoeste 0.5 -- -- 97
2018-02-01 17:00:00 12.7 5 Sudoeste 16 Sudoeste 0.3 -- -- 95
2018-02-01 16:00:00 13.2 6 Oeste 20 Sudoeste 0 -- -- 93
2018-02-01 15:00:00 13.7 15 Sudoeste 23 Sudoeste 0 -- -- 91
2018-02-01 14:00:00 14 15 Sudoeste 24 Sudoeste 0 -- -- 88
2018-02-01 13:00:00 14.6 16 Sudoeste 29 Sur 0 -- -- 85
2018-02-01 12:00:00 15 23 Sudoeste -- -- -- -- -- 83
2018-02-01 11:00:00 13.5 14 Sudoeste -- -- -- -- -- 94
2018-02-01 10:00:00 -- -- -- -- -- -- -- -- --
2018-02-01 09:00:00 -- -- -- -- -- -- -- -- --
2018-02-01 08:00:00 11.4 15 Sudoeste 18 Sur 0 -- -- 96
2018-02-01 07:00:00 10.3 14 Sudoeste 17 Sudoeste 0 -- -- 96
2018-02-01 06:00:00 10.3 10 Sudoeste 20 Sudoeste 0 -- -- 96
2018-02-01 05:00:00 9.9 11 Sudoeste 24 Sudoeste 0 -- -- 95
2018-02-01 04:00:00 9.9 14 Sudoeste 21 Sudoeste 0 -- -- 95
2018-02-01 03:00:00 9.9 10 Sur 15 Sur 0 -- -- 95
2018-02-01 02:00:00 9.6 7 Sur 19 Sudoeste 0 -- -- 94
2018-02-01 01:00:00 10.1 13 Sudoeste 15 Sudoeste 0 -- -- 94
2018-02-01 00:00:00 10.6 9 Sudoeste 13 Sudoeste 0 -- -- 93
2018-01-31 23:00:00 10.4 14 Oeste 17 Oeste 0 -- -- 94
2018-01-31 22:00:00 10.4 14 Oeste 18 Sudoeste 0 -- -- 94
2018-01-31 21:00:00 11.3 14 Sudoeste 18 Sur 0 -- -- 94
2018-01-31 20:00:00 11.1 16 Sur 23 Sur 0 -- -- 94
2018-01-31 19:00:00 11.8 14 Sur 25 Sur 0 -- -- 92
2018-01-31 18:00:00 12.4 21 Sur 25 Sur 0 -- -- 89
2018-01-31 17:00:00 12.4 14 Sudeste 19 Sudeste 0 -- -- 88
2018-01-31 16:00:00 13.5 12 Sudeste 20 Sur 0 -- -- 85
2018-01-31 15:00:00 14.9 16 Sur 22 Sudeste 0 -- -- 77
2018-01-31 14:00:00 15.9 17 Sur 22 Sudeste 0 -- -- 74
2018-01-31 13:00:00 16.9 13 Sudeste 17 Sudeste 0 -- -- 73
2018-01-31 12:00:00 16 11 Sudeste 16 Sur 0 -- -- 76
2018-01-31 11:00:00 15.1 8 Sudeste 13 Sudeste 0 -- -- 88
2018-01-31 10:00:00 14.7 2 Sudeste 7 Sudeste 0 -- -- 93
2018-01-31 09:00:00 13.7 0 Calma 0 Calma 0 -- -- 94
2018-01-31 08:00:00 12.8 0 Calma 4 Sur 0 -- -- 96
2018-01-31 07:00:00 11 4 Sudeste 6 Sur 0 -- -- 97
2018-01-31 06:00:00 10.5 0 Calma -- -- 0 -- -- 96
2018-01-31 05:00:00 10.4 0 Calma 4 Norte 0 -- -- 96
2018-01-31 04:00:00 10.2 4 Norte 8 Norte 0 -- -- 96
2018-01-31 03:00:00 10.6 0 Calma 4 Sur 0 -- -- 96
2018-01-31 02:00:00 10.5 5 Sur 6 Sur 0 -- -- 96
2018-01-31 01:00:00 10.1 6 Sur 11 Sur 0 -- -- 96
2018-01-31 00:00:00 10.1 10 Sur 12 Sur 0 -- -- 96
2018-01-30 23:00:00 10.3 11 Sur 12 Sur 0 -- -- 96
2018-01-30 22:00:00 10.2 11 Sur 12 Sur 0 -- -- 96
2018-01-30 21:00:00 10.3 9 Sur 10 Sur 0 -- -- 96
2018-01-30 20:00:00 10.7 8 Sur 14 Sur 0 -- -- 96
2018-01-30 19:00:00 11.1 10 Sur 13 Sur 0 -- -- 95
2018-01-30 18:00:00 11.3 9 Sur 18 Sur 0 -- -- 95
2018-01-30 17:00:00 12.1 12 Sur 16 Sur 0 -- -- 92
2018-01-30 16:00:00 13.4 13 Sur 18 Sudeste 0 -- -- 90
2018-01-30 15:00:00 15.1 14 Sur 21 Sur 0 -- -- 85
2018-01-30 14:00:00 16 17 Sur 20 Sur 0 -- -- 80
2018-01-30 13:00:00 16.1 15 Sur 19 Sur 0 -- -- 76
2018-01-30 12:00:00 15.9 12 Sudeste 17 Sur 0 -- -- 82
2018-01-30 11:00:00 15.9 13 Sur 15 Sur 0 -- -- 84
2018-01-30 10:00:00 15.3 8 Sur 12 Sur 0 -- -- 87
2018-01-30 09:00:00 14.3 5 Sur 9 Sur 0 -- -- 87
2018-01-30 08:00:00 13.2 0 Calma 6 Sudeste 0 -- -- 85
2018-01-30 07:00:00 10.8 0 Calma -- -- 0 -- -- 93
2018-01-30 06:00:00 9.6 0 Calma 4 Norte 0 -- -- 90
2018-01-30 05:00:00 9.8 0 Calma 6 Sudoeste 0 -- -- 91
2018-01-30 04:00:00 10.2 6 Sudoeste 8 Sudoeste 0 -- -- 90
2018-01-30 03:00:00 9.9 7 Sur 8 Sur 0 -- -- 97
2018-01-30 02:00:00 10.4 6 Sudoeste 8 Sudoeste 0 -- -- 97
2018-01-30 01:00:00 10.5 8 Sudoeste 9 Sudoeste 0 -- -- 97
2018-01-30 00:00:00 10.6 8 Sudoeste 11 Sudoeste 0 -- -- 97
2018-01-29 23:00:00 10.9 7 Sudoeste 10 Sudoeste 0 -- -- 98
2018-01-29 22:00:00 11 9 Sudoeste 11 Sudoeste 0 -- -- 98
2018-01-29 21:00:00 10.8 9 Sur 12 Sur 0 -- -- 97
2018-01-29 20:00:00 11.2 8 Sur 14 Sur 0 -- -- 97
2018-01-29 19:00:00 11.6 10 Sur 15 Sur 0 -- -- 97
2018-01-29 18:00:00 11.9 6 Sur 13 Sudeste 0 -- -- 96
2018-01-29 17:00:00 12.5 10 Sur 18 Sur 0 -- -- 95
2018-01-29 16:00:00 13.6 13 Sur 17 Sur 0 -- -- 92
2018-01-29 15:00:00 14.5 9 Sudeste 13 Sur 0 -- -- 92
2018-01-29 14:00:00 13.4 4 Este 12 Sur 0 -- -- 92
2018-01-29 13:00:00 13.9 5 Este 14 Sur 0 -- -- 91
2018-01-29 12:00:00 13.9 6 Sudeste 10 Este 0 -- -- 91
2018-01-29 11:00:00 13.5 7 Nordeste 14 Nordeste 0 -- -- 92
2018-01-29 10:00:00 13.6 11 Nordeste 17 Nordeste 0 -- -- 92
2018-01-29 09:00:00 13.6 9 Norte 13 Norte 0 -- -- 95
2018-01-29 08:00:00 13.5 5 Norte 8 Norte 0 -- -- 97
2018-01-29 07:00:00 11.2 5 Norte 11 Nordeste 0 -- -- 98
2018-01-29 06:00:00 10.8 8 Norte 14 Norte 0 -- -- 98
2018-01-29 05:00:00 10.9 11 Nordeste 21 Nordeste 0 -- -- 98
2018-01-29 04:00:00 11.2 17 Nordeste 23 Norte 0 -- -- 98
2018-01-29 03:00:00 11.1 18 Norte 22 Norte 0 -- -- 98
2018-01-29 02:00:00 11.3 17 Norte 21 Norte 0 -- -- 98
2018-01-29 01:00:00 11.5 9 Norte 15 Norte 0 -- -- 98
2018-01-29 00:00:00 11.5 9 Norte 16 Norte 0 -- -- 98
2018-01-28 23:00:00 11.7 11 Norte 15 Norte 0 -- -- 98
2018-01-28 22:00:00 11.9 10 Norte 14 Nordeste 0 -- -- 98
2018-01-28 21:00:00 11.9 11 Norte 18 Norte 0 -- -- 98
2018-01-28 20:00:00 12.5 9 Nordeste 21 Nordeste 0 -- -- 97
2018-01-28 19:00:00 12.4 16 Norte 24 Nordeste 0 -- -- 97
2018-01-28 18:00:00 12.9 19 Nordeste 35 Nordeste 0 -- -- 96
2018-01-28 17:00:00 13.2 14 Nordeste 20 Nordeste 0 -- -- 96
2018-01-28 16:00:00 13.2 18 Nordeste 24 Nordeste 0 -- -- 96
2018-01-28 15:00:00 13.8 11 Nordeste 24 Nordeste 0 -- -- 96
2018-01-28 14:00:00 13.7 19 Nordeste 27 Nordeste 0 -- -- 96
2018-01-28 13:00:00 14 18 Nordeste 32 Nordeste 0 -- -- 96
2018-01-28 12:00:00 13.8 26 Nordeste 34 Nordeste 0 -- -- 96
2018-01-28 11:00:00 14.1 29 Nordeste 33 Nordeste 0 -- -- 98
2018-01-28 10:00:00 13.7 26 Nordeste 36 Nordeste 0 -- -- 98
2018-01-28 09:00:00 13.3 32 Nordeste 41 Nordeste 0 -- -- 98
2018-01-28 08:00:00 13.1 35 Nordeste 42 Nordeste 0 -- -- 98
2018-01-28 07:00:00 13 33 Nordeste 44 Nordeste 0 -- -- 98
2018-01-28 06:00:00 12.9 36 Nordeste 47 Nordeste 0 -- -- 98
2018-01-28 05:00:00 13 38 Nordeste 48 Nordeste 0 -- -- 98
2018-01-28 04:00:00 13 39 Nordeste 47 Nordeste 0 -- -- 98
2018-01-28 03:00:00 12.8 39 Nordeste 50 Nordeste 0 -- -- 98
2018-01-28 02:00:00 12.7 44 Norte 57 Nordeste 0 -- -- 98
2018-01-28 01:00:00 12.4 52 Nordeste 64 Nordeste 0 -- -- 98
2018-01-28 00:00:00 12.6 52 Nordeste 63 Nordeste 0 -- -- 98
2018-01-27 23:00:00 12.4 46 Norte 62 Norte 0 -- -- 97
2018-01-27 22:00:00 11.9 50 Norte 58 Norte 0 -- -- 97
2018-01-27 21:00:00 11.3 30 Nordeste 51 Nordeste 0 -- -- 98
2018-01-27 20:00:00 11.9 38 Nordeste 54 Nordeste 0 -- -- 95
2018-01-27 19:00:00 11.4 44 Nordeste 54 Nordeste 0 -- -- 95
2018-01-27 18:00:00 11.4 44 Nordeste 59 Nordeste 0 -- -- 99
2018-01-27 17:00:00 11.2 50 Nordeste 67 Norte 0 -- -- 99
2018-01-27 16:00:00 10.5 59 Norte 68 Norte 0.2 -- -- 99
2018-01-27 15:00:00 9.9 55 Norte 66 Norte 0.4 -- -- 99
2018-01-27 14:00:00 10.3 57 Norte 73 Norte 0 -- -- 97
2018-01-27 13:00:00 10.6 61 Norte 76 Norte 0 -- -- 96
2018-01-27 12:00:00 10.2 64 Norte 77 Norte 0 -- -- 96
2018-01-27 11:00:00 10.5 66 Norte 78 Norte 0 -- -- 96
2018-01-27 10:00:00 10.5 63 Norte 80 Norte 0 -- -- 95
2018-01-27 09:00:00 10.9 59 Norte 77 Norte 0 -- -- 92
2018-01-27 08:00:00 10.3 63 Norte 81 Norte 0 -- -- 92
2018-01-27 07:00:00 10.3 67 Norte 87 Norte 0 -- -- 93
2018-01-27 06:00:00 9.9 69 Norte 84 Norte 0.1 -- -- 95
2018-01-27 05:00:00 9.9 61 Norte 77 Norte 0 -- -- 98
2018-01-27 04:00:00 9.7 60 Norte 72 Norte 0.5 -- -- 98
2018-01-27 03:00:00 9.3 58 Norte 73 Norte 0.9 -- -- 98
2018-01-27 02:00:00 9.7 59 Norte 74 Norte 0 -- -- 98
2018-01-27 01:00:00 9.7 64 Norte 77 Norte 0.2 -- -- 98
2018-01-27 00:00:00 9.9 63 Norte 76 Norte 0 -- -- 98
2018-01-26 23:00:00 10 57 Norte 70 Norte 0.8 -- -- 98
2018-01-26 22:00:00 9.9 54 Norte 77 Norte 0.3 -- -- 98
2018-01-26 21:00:00 9.6 59 Norte 79 Norte 2.1 -- -- 98
2018-01-26 20:00:00 10.7 8 Noroeste 32 Sur 0 -- -- 92
2018-01-26 19:00:00 11.1 5 Norte 8 Norte 0 -- -- 90
2018-01-26 18:00:00 10.1 6 Oeste 12 Oeste 0 -- -- 88
2018-01-26 17:00:00 11 12 Sudoeste 21 Sudoeste 0 -- -- 86
2018-01-26 16:00:00 12.5 4 Noroeste 13 Oeste 0 -- -- 91
2018-01-26 15:00:00 13.7 7 Oeste 21 Sudoeste 0 -- -- 90
2018-01-26 14:00:00 13 15 Sudoeste 30 Sur 0 -- -- 91
2018-01-26 13:00:00 12.1 10 Sur 24 Sudoeste 0 -- -- 97
2018-01-26 12:00:00 11.3 0 Calma 14 Norte 0.1 -- -- 98
2018-01-26 11:00:00 11 6 Noroeste 32 Oeste 0.1 -- -- 97
2018-01-26 10:00:00 11.7 17 Noroeste 43 Noroeste 1 -- -- 98
2018-01-26 09:00:00 11.7 11 Oeste 16 Oeste 0.1 -- -- 98
2018-01-26 08:00:00 11.8 5 Sur 18 Sudoeste 2.2 -- -- 98
2018-01-26 07:00:00 12.6 6 Oeste 14 Noroeste 2.4 -- -- 98
2018-01-26 06:00:00 13.1 7 Sur 21 Sudoeste 0 -- -- 97
2018-01-26 05:00:00 13.4 13 Sudoeste 30 Sudoeste 0 -- -- 95
2018-01-26 04:00:00 13.6 17 Sudoeste 41 Sur 0 -- -- 95
2018-01-26 03:00:00 13.8 30 Sur 48 Sur 0 -- -- 95
2018-01-26 02:00:00 13.4 19 Sur 30 Sur 0 -- -- 95
2018-01-26 01:00:00 13.2 18 Sudoeste 38 Sur 0 -- -- 95
2018-01-26 00:00:00 13.3 14 Sudoeste 29 Sudoeste 0 -- -- 95
2018-01-25 23:00:00 13.5 18 Sudoeste 33 Sur 0 -- -- 95
2018-01-25 22:00:00 13.4 27 Sur 42 Sudoeste 0 -- -- 95
2018-01-25 21:00:00 13.1 25 Sur 38 Sur 0 -- -- 96
2018-01-25 20:00:00 12.4 22 Sur 33 Sur 0 -- -- 97
2018-01-25 19:00:00 11.9 18 Sur 27 Sudoeste 0 -- -- 97
2018-01-25 18:00:00 12.4 13 Sudoeste 24 Sur 0 -- -- 97
2018-01-25 17:00:00 13.7 13 Sur 45 Sur 0 -- -- 97
2018-01-25 16:00:00 14.1 22 Sur 42 Sur 0 -- -- 96
2018-01-25 15:00:00 14.6 24 Sur 41 Sur 0 -- -- 95
2018-01-25 14:00:00 14.8 23 Sur 42 Sur 0 -- -- 94
2018-01-25 13:00:00 15.5 25 Sur 36 Sur 0 -- -- 93
2018-01-25 12:00:00 16.1 23 Sur 34 Sur 0 -- -- 93
2018-01-25 11:00:00 15.5 20 Sur 38 Sur 0 -- -- 95
2018-01-25 10:00:00 15.1 21 Sur 33 Sur 0 -- -- 97
2018-01-25 09:00:00 14.1 21 Sur 31 Sur 0 -- -- 98
2018-01-25 08:00:00 13.8 15 Sur 25 Sur 0 -- -- 98
2018-01-25 07:00:00 11.8 15 Sur 18 Sur 0 -- -- 99
2018-01-25 06:00:00 11.5 14 Sur 18 Sur 0 -- -- 98
2018-01-25 05:00:00 11.5 14 Sur 16 Sur 0 -- -- 98
2018-01-25 04:00:00 11.7 12 Sur 16 Sur 0 -- -- 98
2018-01-25 03:00:00 11.5 15 Sur 20 Sur 0 -- -- 98
2018-01-25 02:00:00 11.6 17 Sur 20 Sur 0 -- -- 98
2018-01-25 01:00:00 11.6 18 Sur 19 Sur 0 -- -- 98
2018-01-25 00:00:00 11.8 16 Sur 22 Sur 0 -- -- 98
2018-01-24 23:00:00 11.9 18 Sur 23 Sudoeste 0 -- -- 98
2018-01-24 22:00:00 12.1 20 Sur 24 Sur 0 -- -- 98
2018-01-24 21:00:00 12.4 16 Sur 18 Sur 0 -- -- 98
2018-01-24 20:00:00 12.6 17 Sur 24 Sur 0 -- -- 97
2018-01-24 19:00:00 13.1 21 Sur 24 Sur 0 -- -- 95
2018-01-24 18:00:00 12.8 19 Sur 21 Sur 0 -- -- 95
2018-01-24 17:00:00 13.6 19 Sur 23 Sur 0 -- -- 94
2018-01-24 16:00:00 14.7 19 Sur 24 Sur 0 -- -- 92
2018-01-24 15:00:00 15.1 17 Sur 28 Sudoeste 0 -- -- 93
2018-01-24 14:00:00 15.4 17 Sur 30 Sudeste 0 -- -- 93
2018-01-24 13:00:00 16.4 16 Sur 25 Sur 0 -- -- 90
2018-01-24 12:00:00 18 15 Sur 18 Sur 0 -- -- 83
2018-01-24 11:00:00 15.9 7 Sudeste 12 Sur 0 -- -- 94
2018-01-24 10:00:00 15.7 3 Nordeste 10 Nordeste 0 -- -- 94
2018-01-24 09:00:00 15 6 Nordeste 9 Nordeste 0 -- -- 93
2018-01-24 08:00:00 14.5 6 Nordeste 8 Nordeste 0 -- -- 91
2018-01-24 07:00:00 13.7 0 Calma -- -- 0 -- -- 91
2018-01-24 06:00:00 12.6 0 Calma -- -- 0 -- -- 92
2018-01-24 05:00:00 12.7 0 Calma 5 Noroeste 0 -- -- 94
2018-01-24 04:00:00 12.7 5 Norte 15 Noroeste 0 -- -- 96
2018-01-24 03:00:00 12.6 14 Norte 17 Norte 0 -- -- 97
2018-01-24 02:00:00 12.6 12 Norte 15 Norte 0 -- -- 96
2018-01-24 01:00:00 12.4 9 Noroeste 12 Noroeste 0 -- -- 96
2018-01-24 00:00:00 12.7 9 Norte 11 Noroeste 0 -- -- 96
2018-01-23 23:00:00 12.4 3 Norte 12 Sur 0 -- -- 98
2018-01-23 22:00:00 12.7 6 Oeste 13 Norte 0 -- -- 98
2018-01-23 21:00:00 13.3 11 Norte 13 Norte 0 -- -- 96
2018-01-23 20:00:00 13.2 9 Noroeste 12 Sudoeste 0 -- -- 95
2018-01-23 19:00:00 13.2 10 Sudoeste 16 Sudoeste 0 -- -- 95
2018-01-23 18:00:00 13.5 13 Sur 18 Sur 0 -- -- 95
2018-01-23 17:00:00 14 12 Sur 14 Sur 0 -- -- 97
2018-01-23 16:00:00 14.4 8 Sur 11 Sur 0 -- -- 96
2018-01-23 15:00:00 14.6 0 Calma 10 Norte 0 -- -- 96
2018-01-23 14:00:00 14.6 8 Norte 15 Norte 0 -- -- 95
2018-01-23 13:00:00 15.2 12 Norte 15 Norte 0 -- -- 95
2018-01-23 12:00:00 15 13 Norte 20 Norte 0 -- -- 94
2018-01-23 11:00:00 18 17 Norte 47 Noroeste 0 -- -- 88
2018-01-23 10:00:00 17.6 17 Noroeste 27 Norte 0 -- -- 88
2018-01-23 09:00:00 16.2 18 Noroeste -- -- -- -- -- 90
2018-01-23 08:00:00 15.6 14 Norte 24 Noroeste 0 -- -- 87
2018-01-23 07:00:00 13.6 13 Noroeste 22 Noroeste 0 -- -- 95
2018-01-23 06:00:00 13.4 2 Norte 31 Noroeste 0 -- -- 93
2018-01-23 05:00:00 12.6 14 Oeste 17 Oeste 0 -- -- 98
2018-01-23 04:00:00 12.9 12 Sur 13 Sur 0 -- -- 98
2018-01-23 03:00:00 13 9 Sur 18 Sudoeste 0 -- -- 98
2018-01-23 02:00:00 13.5 4 Nordeste 13 Nordeste 0 -- -- 98
2018-01-23 01:00:00 13.4 5 Este 16 Sudeste 0 -- -- 98
2018-01-23 00:00:00 14 8 Este 13 Este 0 -- -- 95
2018-01-22 23:00:00 14.2 0 Calma 9 Oeste 0 -- -- 92
2018-01-22 22:00:00 14 0 Calma 10 Norte 0 -- -- 98
2018-01-22 21:00:00 14 8 Norte 10 Norte 0 -- -- 96
2018-01-22 20:00:00 14.6 5 Norte 8 Norte 0 -- -- 90
2018-01-22 19:00:00 14.9 2 Sudeste 6 Sudeste 0 -- -- 90
2018-01-22 18:00:00 14.5 0 Calma 10 Sur 0 -- -- 94
2018-01-22 17:00:00 15.2 9 Sur 17 Sur 0 -- -- 95
2018-01-22 16:00:00 16.4 8 Sur 18 Sudoeste 0 -- -- 90
2018-01-22 15:00:00 19.3 7 Sur 28 Norte 0 -- -- 73
2018-01-22 14:00:00 19.3 16 Noroeste 33 Norte 0 -- -- 66
2018-01-22 13:00:00 20.4 13 Noroeste 27 Norte 0 -- -- 63
2018-01-22 12:00:00 22.1 9 Noroeste 33 Oeste 0 -- -- 53
2018-01-22 11:00:00 20.8 9 Oeste 35 Norte 0 -- -- 59
2018-01-22 10:00:00 19.4 13 Noroeste 34 Norte 0 -- -- 61
2018-01-22 09:00:00 18.8 12 Noroeste 30 Norte 0 -- -- 63
2018-01-22 08:00:00 17.5 15 Noroeste 25 Oeste 0 -- -- 70
2018-01-22 07:00:00 15.3 15 Oeste 28 Oeste 0 -- -- 76
2018-01-22 06:00:00 15.4 14 Noroeste 34 Noroeste 0 -- -- 77
2018-01-22 05:00:00 15.4 15 Noroeste 36 Oeste 0 -- -- 79
2018-01-22 04:00:00 15.8 12 Noroeste 30 Noroeste 0 -- -- 77
2018-01-22 03:00:00 15.1 10 Oeste 19 Oeste 0 -- -- 80
2018-01-22 02:00:00 15.7 4 Sudoeste 26 Noroeste 0 -- -- 79
2018-01-22 01:00:00 15.9 13 Oeste 35 Oeste 0 -- -- 78
2018-01-22 00:00:00 16.8 14 Noroeste 34 Norte 0 -- -- 74